Capitol Logistics 252


KIAD
Washington Dulles International Airport
Dulles, Virginia, US
KRFD
Chicago/Rockford International Airport
Rockford, Illinois, US

Route Details

Aircraft Information
Primary: Boeing 767-300BDSF
Backup: Not Available
Route Data
Distance: 626nm
Sched. Duration: 1h 39m
Avg. Duration: 1h 55m (+16m)
Times Flown: 16
Recm'd Route: BUNZZ3 RAMAY Q72 HACKS J149 FWA V340 OXI JOT
Planned Altitude: 36,000ft
Origin Wx: KIAD 262052Z 00000KT 1/2SM R01R/P6000FT BR OVC005 03/02 A2983 RMK AO2 SFC VIS 4 SLP103 T00280022 55007
Dest. Wx: KRFD 262054Z 36016KT 10SM FEW017 BKN140 BKN250 M02/M08 A3003 RMK AO2 SNE09 SLP179 P0000 60000 T10221078 53017
Notes:

Financial History
Total Freight: 1,310,319lbs
Average Load: 81,895lbs/flt
Fuel Used: 247,204lbs
Avg. Fuel Used: 15,450lbs/flt
Fuel Expense: $317,493
Avg. Fuel Expense: $19,843
Avg. Fuel Cost: $1.26/lbs
Total Gross Income: $1,733,861
Pilot Pay: $2,384
Total Expenses: $184,711
Total Revenue: $1,225,703
Average Revenue: $108,366.29